sensor_id;sensor_type;location;lat;lon;timestamp;temperature;humidity
56869;DHT22;42754;0.000;0.000;2023-03-13T00:00:31;9.10;99.90
56869;DHT22;42754;0.000;0.000;2023-03-13T00:02:56;9.20;99.90
56869;DHT22;42754;0.000;0.000;2023-03-13T00:05:22;9.20;99.90
56869;DHT22;42754;0.000;0.000;2023-03-13T00:07:47;9.10;99.90
56869;DHT22;42754;0.000;0.000;2023-03-13T00:10:14;9.10;99.90
56869;DHT22;42754;0.000;0.000;2023-03-13T00:12:39;9.10;99.90
56869;DHT22;42754;0.000;0.000;2023-03-13T00:15:05;9.10;99.90
56869;DHT22;42754;0.000;0.000;2023-03-13T00:17:31;9.10;99.90
56869;DHT22;42754;0.000;0.000;2023-03-13T00:19:57;9.00;99.90
56869;DHT22;42754;0.000;0.000;2023-03-13T00:22:23;9.00;99.90
56869;DHT22;42754;0.000;0.000;2023-03-13T00:24:48;9.00;99.90
56869;DHT22;42754;0.000;0.000;2023-03-13T00:27:14;9.00;99.90
56869;DHT22;42754;0.000;0.000;2023-03-13T00:29:39;9.00;99.90
56869;DHT22;42754;0.000;0.000;2023-03-13T00:32:05;9.00;99.90
56869;DHT22;42754;0.000;0.000;2023-03-13T00:34:31;9.00;99.90
56869;DHT22;42754;0.000;0.000;2023-03-13T00:36:56;9.00;99.90
56869;DHT22;42754;0.000;0.000;2023-03-13T00:39:22;9.00;99.90
56869;DHT22;42754;0.000;0.000;2023-03-13T00:41:47;9.00;99.90
56869;DHT22;42754;0.000;0.000;2023-03-13T00:44:13;9.00;99.90
56869;DHT22;42754;0.000;0.000;2023-03-13T00:46:39;9.00;99.90
56869;DHT22;42754;0.000;0.000;2023-03-13T00:49:05;9.00;99.90
56869;DHT22;42754;0.000;0.000;2023-03-13T00:51:30;9.00;99.90
56869;DHT22;42754;0.000;0.000;2023-03-13T00:54:00;9.00;99.90
56869;DHT22;42754;0.000;0.000;2023-03-13T00:56:25;9.00;99.90
56869;DHT22;42754;0.000;0.000;2023-03-13T00:58:51;9.00;99.90
56869;DHT22;42754;0.000;0.000;2023-03-13T01:01:19;9.00;99.90
56869;DHT22;42754;0.000;0.000;2023-03-13T01:03:48;9.00;99.90
56869;DHT22;42754;0.000;0.000;2023-03-13T01:06:15;9.00;99.90
56869;DHT22;42754;0.000;0.000;2023-03-13T01:08:41;9.00;99.90
56869;DHT22;42754;0.000;0.000;2023-03-13T01:11:08;9.00;99.90
56869;DHT22;42754;0.000;0.000;2023-03-13T01:13:34;9.00;99.90
56869;DHT22;42754;0.000;0.000;2023-03-13T01:18:28;9.00;99.90
56869;DHT22;42754;0.000;0.000;2023-03-13T01:20:54;9.00;99.90
56869;DHT22;42754;0.000;0.000;2023-03-13T01:23:19;9.00;99.90
56869;DHT22;42754;0.000;0.000;2023-03-13T01:25:45;9.00;99.90
56869;DHT22;42754;0.000;0.000;2023-03-13T01:28:10;9.00;99.90
56869;DHT22;42754;0.000;0.000;2023-03-13T01:30:36;9.00;99.90
56869;DHT22;42754;0.000;0.000;2023-03-13T01:33:02;9.00;99.90
56869;DHT22;42754;0.000;0.000;2023-03-13T01:35:27;9.10;99.90
56869;DHT22;42754;0.000;0.000;2023-03-13T01:37:53;9.10;99.90
56869;DHT22;42754;0.000;0.000;2023-03-13T01:40:18;9.10;99.90
56869;DHT22;42754;0.000;0.000;2023-03-13T01:42:48;9.10;99.90
56869;DHT22;42754;0.000;0.000;2023-03-13T01:47:58;9.10;99.90
56869;DHT22;42754;0.000;0.000;2023-03-13T01:50:23;9.10;99.90
56869;DHT22;42754;0.000;0.000;2023-03-13T01:52:49;9.10;99.90
56869;DHT22;42754;0.000;0.000;2023-03-13T01:55:15;9.10;99.90
56869;DHT22;42754;0.000;0.000;2023-03-13T01:57:42;9.20;99.90
56869;DHT22;42754;0.000;0.000;2023-03-13T02:00:10;9.20;99.90
56869;DHT22;42754;0.000;0.000;2023-03-13T02:02:37;9.10;99.90
56869;DHT22;42754;0.000;0.000;2023-03-13T02:05:04;9.20;99.90
56869;DHT22;42754;0.000;0.000;2023-03-13T02:07:36;9.20;99.90
56869;DHT22;42754;0.000;0.000;2023-03-13T02:10:03;9.20;99.90
56869;DHT22;42754;0.000;0.000;2023-03-13T02:12:34;9.20;99.90
56869;DHT22;42754;0.000;0.000;2023-03-13T02:15:01;9.20;99.90
56869;DHT22;42754;0.000;0.000;2023-03-13T02:17:29;9.20;99.90
56869;DHT22;42754;0.000;0.000;2023-03-13T02:19:55;9.30;99.90
56869;DHT22;42754;0.000;0.000;2023-03-13T02:24:57;9.30;99.90
56869;DHT22;42754;0.000;0.000;2023-03-13T02:27:26;9.30;99.90
56869;DHT22;42754;0.000;0.000;2023-03-13T02:29:52;9.30;99.90
56869;DHT22;42754;0.000;0.000;2023-03-13T02:32:18;9.30;99.90
56869;DHT22;42754;0.000;0.000;2023-03-13T02:34:44;9.30;99.90
56869;DHT22;42754;0.000;0.000;2023-03-13T02:37:11;9.40;99.90
56869;DHT22;42754;0.000;0.000;2023-03-13T02:39:38;9.40;99.90
56869;DHT22;42754;0.000;0.000;2023-03-13T02:42:06;9.40;99.90
56869;DHT22;42754;0.000;0.000;2023-03-13T02:44:36;9.40;99.90
56869;DHT22;42754;0.000;0.000;2023-03-13T02:47:03;9.40;99.90
56869;DHT22;42754;0.000;0.000;2023-03-13T02:49:29;9.40;99.90
56869;DHT22;42754;0.000;0.000;2023-03-13T02:51:55;9.50;99.90
56869;DHT22;42754;0.000;0.000;2023-03-13T02:54:24;9.50;99.90
56869;DHT22;42754;0.000;0.000;2023-03-13T02:56:55;9.50;99.90
56869;DHT22;42754;0.000;0.000;2023-03-13T02:59:22;9.60;99.90
56869;DHT22;42754;0.000;0.000;2023-03-13T03:01:47;9.60;99.90
56869;DHT22;42754;0.000;0.000;2023-03-13T03:04:17;9.60;99.90
56869;DHT22;42754;0.000;0.000;2023-03-13T03:06:43;9.60;99.90
56869;DHT22;42754;0.000;0.000;2023-03-13T03:09:08;9.60;99.90
56869;DHT22;42754;0.000;0.000;2023-03-13T03:11:34;9.70;99.90
56869;DHT22;42754;0.000;0.000;2023-03-13T03:14:00;9.70;99.90
56869;DHT22;42754;0.000;0.000;2023-03-13T03:16:25;9.80;99.90
56869;DHT22;42754;0.000;0.000;2023-03-13T03:18:52;9.80;99.90
56869;DHT22;42754;0.000;0.000;2023-03-13T03:21:17;9.90;99.90
56869;DHT22;42754;0.000;0.000;2023-03-13T03:23:43;9.90;99.90
56869;DHT22;42754;0.000;0.000;2023-03-13T03:26:08;10.00;99.90
56869;DHT22;42754;0.000;0.000;2023-03-13T03:28:34;10.00;99.90
56869;DHT22;42754;0.000;0.000;2023-03-13T03:31:04;10.00;99.90
56869;DHT22;42754;0.000;0.000;2023-03-13T03:33:29;10.10;99.90
56869;DHT22;42754;0.000;0.000;2023-03-13T03:35:59;10.10;99.90
56869;DHT22;42754;0.000;0.000;2023-03-13T03:38:25;10.20;99.90
56869;DHT22;42754;0.000;0.000;2023-03-13T03:40:51;10.10;99.90
56869;DHT22;42754;0.000;0.000;2023-03-13T03:43:16;10.20;99.90
56869;DHT22;42754;0.000;0.000;2023-03-13T03:45:42;10.30;99.90
56869;DHT22;42754;0.000;0.000;2023-03-13T03:48:07;10.20;99.90
56869;DHT22;42754;0.000;0.000;2023-03-13T03:50:33;10.30;99.90
56869;DHT22;42754;0.000;0.000;2023-03-13T03:52:58;10.30;99.90
56869;DHT22;42754;0.000;0.000;2023-03-13T03:55:24;10.40;99.90
56869;DHT22;42754;0.000;0.000;2023-03-13T03:57:50;10.30;99.90
56869;DHT22;42754;0.000;0.000;2023-03-13T04:00:16;10.40;99.90
56869;DHT22;42754;0.000;0.000;2023-03-13T04:02:43;10.40;99.90
56869;DHT22;42754;0.000;0.000;2023-03-13T04:05:09;10.40;99.90
56869;DHT22;42754;0.000;0.000;2023-03-13T04:07:35;10.50;99.90
56869;DHT22;42754;0.000;0.000;2023-03-13T04:10:01;10.50;99.90
56869;DHT22;42754;0.000;0.000;2023-03-13T04:12:26;10.60;99.90
56869;DHT22;42754;0.000;0.000;2023-03-13T04:14:52;10.60;99.90
56869;DHT22;42754;0.000;0.000;2023-03-13T04:17:17;10.50;99.90
56869;DHT22;42754;0.000;0.000;2023-03-13T04:19:43;10.60;99.90
56869;DHT22;42754;0.000;0.000;2023-03-13T04:22:08;10.60;99.90
56869;DHT22;42754;0.000;0.000;2023-03-13T04:24:34;10.60;99.90
56869;DHT22;42754;0.000;0.000;2023-03-13T04:27:00;10.70;99.90
56869;DHT22;42754;0.000;0.000;2023-03-13T04:29:28;10.70;99.90
56869;DHT22;42754;0.000;0.000;2023-03-13T04:31:54;10.70;99.90
56869;DHT22;42754;0.000;0.000;2023-03-13T04:34:20;10.70;99.90
56869;DHT22;42754;0.000;0.000;2023-03-13T04:36:46;10.70;99.90
56869;DHT22;42754;0.000;0.000;2023-03-13T04:39:11;10.80;99.90
56869;DHT22;42754;0.000;0.000;2023-03-13T04:41:37;10.80;99.90
56869;DHT22;42754;0.000;0.000;2023-03-13T04:44:02;10.90;99.90
56869;DHT22;42754;0.000;0.000;2023-03-13T04:46:28;10.90;99.90
56869;DHT22;42754;0.000;0.000;2023-03-13T04:48:53;10.90;99.90
56869;DHT22;42754;0.000;0.000;2023-03-13T04:51:19;10.90;99.90
56869;DHT22;42754;0.000;0.000;2023-03-13T04:53:45;10.90;99.90
56869;DHT22;42754;0.000;0.000;2023-03-13T04:56:11;10.90;99.90
56869;DHT22;42754;0.000;0.000;2023-03-13T04:58:40;10.90;99.90
56869;DHT22;42754;0.000;0.000;2023-03-13T05:01:06;10.90;99.90
56869;DHT22;42754;0.000;0.000;2023-03-13T05:03:31;11.00;99.90
56869;DHT22;42754;0.000;0.000;2023-03-13T05:05:57;11.10;99.90
56869;DHT22;42754;0.000;0.000;2023-03-13T05:08:23;11.00;99.90
56869;DHT22;42754;0.000;0.000;2023-03-13T05:10:48;11.10;99.90
56869;DHT22;42754;0.000;0.000;2023-03-13T05:13:15;11.10;99.90
56869;DHT22;42754;0.000;0.000;2023-03-13T05:15:41;11.00;99.90
56869;DHT22;42754;0.000;0.000;2023-03-13T05:18:07;11.00;99.90
56869;DHT22;42754;0.000;0.000;2023-03-13T05:20:32;11.10;99.90
56869;DHT22;42754;0.000;0.000;2023-03-13T05:22:58;11.10;99.90
56869;DHT22;42754;0.000;0.000;2023-03-13T05:25:23;11.20;99.90
56869;DHT22;42754;0.000;0.000;2023-03-13T05:27:49;11.20;99.90
56869;DHT22;42754;0.000;0.000;2023-03-13T05:30:14;11.20;99.90
56869;DHT22;42754;0.000;0.000;2023-03-13T05:32:40;11.20;99.90
56869;DHT22;42754;0.000;0.000;2023-03-13T05:35:06;11.20;99.90
56869;DHT22;42754;0.000;0.000;2023-03-13T05:37:31;11.30;99.90
56869;DHT22;42754;0.000;0.000;2023-03-13T05:39:57;11.30;99.90
56869;DHT22;42754;0.000;0.000;2023-03-13T05:42:23;11.30;99.90
56869;DHT22;42754;0.000;0.000;2023-03-13T05:44:51;11.30;99.90
56869;DHT22;42754;0.000;0.000;2023-03-13T05:47:16;11.30;99.90
56869;DHT22;42754;0.000;0.000;2023-03-13T05:49:43;11.20;99.90
56869;DHT22;42754;0.000;0.000;2023-03-13T05:52:08;11.40;99.90
56869;DHT22;42754;0.000;0.000;2023-03-13T05:54:34;11.40;99.90
56869;DHT22;42754;0.000;0.000;2023-03-13T05:56:59;11.40;99.90
56869;DHT22;42754;0.000;0.000;2023-03-13T05:59:25;11.40;99.90
56869;DHT22;42754;0.000;0.000;2023-03-13T06:01:50;11.40;99.90
56869;DHT22;42754;0.000;0.000;2023-03-13T06:04:17;11.40;99.90
56869;DHT22;42754;0.000;0.000;2023-03-13T06:06:43;11.40;99.90
56869;DHT22;42754;0.000;0.000;2023-03-13T06:09:08;11.40;99.90
56869;DHT22;42754;0.000;0.000;2023-03-13T06:11:36;11.40;99.90
56869;DHT22;42754;0.000;0.000;2023-03-13T06:14:02;11.50;99.90
56869;DHT22;42754;0.000;0.000;2023-03-13T06:16:28;11.50;99.90
56869;DHT22;42754;0.000;0.000;2023-03-13T06:18:53;11.50;99.90
56869;DHT22;42754;0.000;0.000;2023-03-13T06:21:19;11.50;99.90
56869;DHT22;42754;0.000;0.000;2023-03-13T06:23:44;11.60;99.90
56869;DHT22;42754;0.000;0.000;2023-03-13T06:26:10;11.60;99.90
56869;DHT22;42754;0.000;0.000;2023-03-13T06:28:36;11.70;99.90
56869;DHT22;42754;0.000;0.000;2023-03-13T06:31:05;11.60;99.90
56869;DHT22;42754;0.000;0.000;2023-03-13T06:33:31;11.60;99.90
56869;DHT22;42754;0.000;0.000;2023-03-13T06:35:56;11.60;99.90
56869;DHT22;42754;0.000;0.000;2023-03-13T06:38:25;11.80;99.90
56869;DHT22;42754;0.000;0.000;2023-03-13T06:40:51;11.80;99.90
56869;DHT22;42754;0.000;0.000;2023-03-13T06:43:17;11.80;99.90
56869;DHT22;42754;0.000;0.000;2023-03-13T06:45:42;11.70;99.90
56869;DHT22;42754;0.000;0.000;2023-03-13T06:48:08;11.70;99.90
56869;DHT22;42754;0.000;0.000;2023-03-13T06:50:36;11.80;99.90
56869;DHT22;42754;0.000;0.000;2023-03-13T06:53:02;11.80;99.90
56869;DHT22;42754;0.000;0.000;2023-03-13T06:55:28;11.80;99.90
56869;DHT22;42754;0.000;0.000;2023-03-13T06:57:53;11.90;99.90
56869;DHT22;42754;0.000;0.000;2023-03-13T07:00:19;11.90;99.90
56869;DHT22;42754;0.000;0.000;2023-03-13T07:02:45;11.90;99.90
56869;DHT22;42754;0.000;0.000;2023-03-13T07:05:10;12.00;99.90
56869;DHT22;42754;0.000;0.000;2023-03-13T07:07:36;12.00;99.90
56869;DHT22;42754;0.000;0.000;2023-03-13T07:10:02;12.00;99.90
56869;DHT22;42754;0.000;0.000;2023-03-13T07:12:27;11.90;99.90
56869;DHT22;42754;0.000;0.000;2023-03-13T07:14:53;12.00;99.90
56869;DHT22;42754;0.000;0.000;2023-03-13T07:17:19;12.00;99.90
56869;DHT22;42754;0.000;0.000;2023-03-13T07:19:45;12.10;99.90
56869;DHT22;42754;0.000;0.000;2023-03-13T07:22:10;12.00;99.90
56869;DHT22;42754;0.000;0.000;2023-03-13T07:24:36;12.10;99.90
56869;DHT22;42754;0.000;0.000;2023-03-13T07:27:02;12.10;99.90
56869;DHT22;42754;0.000;0.000;2023-03-13T07:29:27;12.20;99.90
56869;DHT22;42754;0.000;0.000;2023-03-13T07:31:53;12.20;99.90
56869;DHT22;42754;0.000;0.000;2023-03-13T07:34:18;12.30;99.90
56869;DHT22;42754;0.000;0.000;2023-03-13T07:36:44;12.30;99.90
56869;DHT22;42754;0.000;0.000;2023-03-13T07:39:09;12.40;99.90
56869;DHT22;42754;0.000;0.000;2023-03-13T07:41:36;12.40;99.90
56869;DHT22;42754;0.000;0.000;2023-03-13T07:44:02;12.40;99.90
56869;DHT22;42754;0.000;0.000;2023-03-13T07:46:28;12.40;99.90
56869;DHT22;42754;0.000;0.000;2023-03-13T07:48:54;12.50;99.90
56869;DHT22;42754;0.000;0.000;2023-03-13T07:51:20;12.50;99.90
56869;DHT22;42754;0.000;0.000;2023-03-13T07:53:46;12.50;99.90
56869;DHT22;42754;0.000;0.000;2023-03-13T07:56:16;12.50;99.90
56869;DHT22;42754;0.000;0.000;2023-03-13T07:58:42;12.60;99.90
56869;DHT22;42754;0.000;0.000;2023-03-13T08:03:34;12.60;99.90
56869;DHT22;42754;0.000;0.000;2023-03-13T08:06:00;12.60;99.90
56869;DHT22;42754;0.000;0.000;2023-03-13T08:08:26;12.60;99.90
56869;DHT22;42754;0.000;0.000;2023-03-13T08:10:52;12.60;99.90
56869;DHT22;42754;0.000;0.000;2023-03-13T08:13:18;12.60;99.90
56869;DHT22;42754;0.000;0.000;2023-03-13T08:15:43;12.50;99.90
56869;DHT22;42754;0.000;0.000;2023-03-13T08:18:09;12.50;99.90
56869;DHT22;42754;0.000;0.000;2023-03-13T08:20:34;12.50;99.90
56869;DHT22;42754;0.000;0.000;2023-03-13T08:23:00;12.50;99.90
56869;DHT22;42754;0.000;0.000;2023-03-13T08:25:25;12.50;99.90
56869;DHT22;42754;0.000;0.000;2023-03-13T08:27:51;12.50;99.90
56869;DHT22;42754;0.000;0.000;2023-03-13T08:30:16;12.50;99.90
56869;DHT22;42754;0.000;0.000;2023-03-13T08:32:42;12.50;99.90
56869;DHT22;42754;0.000;0.000;2023-03-13T08:35:08;12.60;99.90
56869;DHT22;42754;0.000;0.000;2023-03-13T08:37:33;12.70;99.90
56869;DHT22;42754;0.000;0.000;2023-03-13T08:39:59;12.80;99.90
56869;DHT22;42754;0.000;0.000;2023-03-13T08:42:24;12.90;99.90
56869;DHT22;42754;0.000;0.000;2023-03-13T08:44:50;12.90;99.90
56869;DHT22;42754;0.000;0.000;2023-03-13T08:47:15;13.00;99.90
56869;DHT22;42754;0.000;0.000;2023-03-13T08:49:42;13.00;99.90
56869;DHT22;42754;0.000;0.000;2023-03-13T08:52:08;13.00;99.90
56869;DHT22;42754;0.000;0.000;2023-03-13T08:54:34;12.90;99.90
56869;DHT22;42754;0.000;0.000;2023-03-13T08:56:59;12.90;99.90
56869;DHT22;42754;0.000;0.000;2023-03-13T08:59:25;12.90;99.90
56869;DHT22;42754;0.000;0.000;2023-03-13T09:01:50;12.90;99.90
56869;DHT22;42754;0.000;0.000;2023-03-13T09:04:16;12.90;99.90
56869;DHT22;42754;0.000;0.000;2023-03-13T09:06:42;12.90;99.90
56869;DHT22;42754;0.000;0.000;2023-03-13T09:09:08;13.00;99.90
56869;DHT22;42754;0.000;0.000;2023-03-13T09:11:34;13.20;99.90
56869;DHT22;42754;0.000;0.000;2023-03-13T09:14:00;13.60;99.90
56869;DHT22;42754;0.000;0.000;2023-03-13T09:16:27;14.00;99.90
56869;DHT22;42754;0.000;0.000;2023-03-13T09:18:53;14.20;99.90
56869;DHT22;42754;0.000;0.000;2023-03-13T09:21:19;14.40;99.90
56869;DHT22;42754;0.000;0.000;2023-03-13T09:23:46;15.00;99.90
56869;DHT22;42754;0.000;0.000;2023-03-13T09:26:12;14.80;99.90
56869;DHT22;42754;0.000;0.000;2023-03-13T09:28:39;14.50;99.90
56869;DHT22;42754;0.000;0.000;2023-03-13T09:34:02;14.30;99.90
56869;DHT22;42754;0.000;0.000;2023-03-13T09:36:28;14.20;99.90
56869;DHT22;42754;0.000;0.000;2023-03-13T09:38:56;14.10;99.90
56869;DHT22;42754;0.000;0.000;2023-03-13T09:41:23;14.20;99.90
56869;DHT22;42754;0.000;0.000;2023-03-13T09:46:53;14.50;99.90
56869;DHT22;42754;0.000;0.000;2023-03-13T09:49:12;14.40;99.90
56869;DHT22;42754;0.000;0.000;2023-03-13T09:51:39;14.70;99.90
56869;DHT22;42754;0.000;0.000;2023-03-13T09:56:55;15.10;99.90
56869;DHT22;42754;0.000;0.000;2023-03-13T10:01:50;14.80;99.90
56869;DHT22;42754;0.000;0.000;2023-03-13T10:06:44;14.70;99.90
56869;DHT22;42754;0.000;0.000;2023-03-13T10:09:31;14.60;99.90
56869;DHT22;42754;0.000;0.000;2023-03-13T10:12:04;14.60;99.90
56869;DHT22;42754;0.000;0.000;2023-03-13T10:14:34;14.60;99.90
56869;DHT22;42754;0.000;0.000;2023-03-13T10:17:06;14.60;99.90
56869;DHT22;42754;0.000;0.000;2023-03-13T10:19:35;14.60;99.90
56869;DHT22;42754;0.000;0.000;2023-03-13T10:22:14;14.70;99.90
56869;DHT22;42754;0.000;0.000;2023-03-13T10:27:18;14.80;99.90
56869;DHT22;42754;0.000;0.000;2023-03-13T10:29:44;14.90;99.90
56869;DHT22;42754;0.000;0.000;2023-03-13T10:32:12;15.10;99.90
56869;DHT22;42754;0.000;0.000;2023-03-13T10:34:45;15.20;99.90
56869;DHT22;42754;0.000;0.000;2023-03-13T10:37:14;15.40;99.90
56869;DHT22;42754;0.000;0.000;2023-03-13T10:39:40;15.30;99.90
56869;DHT22;42754;0.000;0.000;2023-03-13T10:42:09;15.30;99.90
56869;DHT22;42754;0.000;0.000;2023-03-13T10:44:35;15.30;99.90
56869;DHT22;42754;0.000;0.000;2023-03-13T10:47:02;15.30;99.90
56869;DHT22;42754;0.000;0.000;2023-03-13T10:49:30;15.40;99.90
56869;DHT22;42754;0.000;0.000;2023-03-13T10:52:01;15.30;99.90
56869;DHT22;42754;0.000;0.000;2023-03-13T10:54:27;15.30;99.90
56869;DHT22;42754;0.000;0.000;2023-03-13T10:57:08;15.50;99.90
56869;DHT22;42754;0.000;0.000;2023-03-13T10:59:38;15.40;99.90
56869;DHT22;42754;0.000;0.000;2023-03-13T11:02:12;15.50;99.90
56869;DHT22;42754;0.000;0.000;2023-03-13T11:04:41;15.80;99.90
56869;DHT22;42754;0.000;0.000;2023-03-13T11:07:15;15.60;99.90
56869;DHT22;42754;0.000;0.000;2023-03-13T11:09:41;15.90;99.90
56869;DHT22;42754;0.000;0.000;2023-03-13T11:12:16;15.80;99.90
56869;DHT22;42754;0.000;0.000;2023-03-13T11:14:43;15.80;99.90
56869;DHT22;42754;0.000;0.000;2023-03-13T11:17:23;16.00;99.90
56869;DHT22;42754;0.000;0.000;2023-03-13T11:19:53;16.20;99.90
56869;DHT22;42754;0.000;0.000;2023-03-13T11:22:32;16.40;99.90
56869;DHT22;42754;0.000;0.000;2023-03-13T11:27:35;16.50;99.90
56869;DHT22;42754;0.000;0.000;2023-03-13T11:32:40;16.40;99.90
56869;DHT22;42754;0.000;0.000;2023-03-13T11:35:14;16.20;99.90
56869;DHT22;42754;0.000;0.000;2023-03-13T11:37:40;16.60;99.90
56869;DHT22;42754;0.000;0.000;2023-03-13T11:40:17;17.10;99.90
56869;DHT22;42754;0.000;0.000;2023-03-13T11:45:36;16.80;99.90
56869;DHT22;42754;0.000;0.000;2023-03-13T11:50:58;17.00;99.90
56869;DHT22;42754;0.000;0.000;2023-03-13T11:56:21;17.60;99.90
56869;DHT22;42754;0.000;0.000;2023-03-13T12:01:50;18.10;99.90
56869;DHT22;42754;0.000;0.000;2023-03-13T12:04:22;17.80;99.90
56869;DHT22;42754;0.000;0.000;2023-03-13T12:06:58;17.90;99.90
56869;DHT22;42754;0.000;0.000;2023-03-13T12:09:43;17.80;99.90
56869;DHT22;42754;0.000;0.000;2023-03-13T12:12:18;17.70;99.90
56869;DHT22;42754;0.000;0.000;2023-03-13T12:14:52;17.70;99.90
56869;DHT22;42754;0.000;0.000;2023-03-13T12:17:25;17.80;99.90
56869;DHT22;42754;0.000;0.000;2023-03-13T12:25:24;17.80;99.90
56869;DHT22;42754;0.000;0.000;2023-03-13T12:30:44;17.60;99.90
56869;DHT22;42754;0.000;0.000;2023-03-13T12:38:35;17.40;99.90
56869;DHT22;42754;0.000;0.000;2023-03-13T12:43:38;17.60;99.90
56869;DHT22;42754;0.000;0.000;2023-03-13T12:46:09;17.30;99.90
56869;DHT22;42754;0.000;0.000;2023-03-13T12:48:43;17.10;99.90
56869;DHT22;42754;0.000;0.000;2023-03-13T12:53:45;16.90;99.90
56869;DHT22;42754;0.000;0.000;2023-03-13T12:59:16;17.20;99.90
56869;DHT22;42754;0.000;0.000;2023-03-13T13:01:53;17.50;99.90
56869;DHT22;42754;0.000;0.000;2023-03-13T13:04:20;17.80;99.90
56869;DHT22;42754;0.000;0.000;2023-03-13T13:06:50;18.20;99.90
56869;DHT22;42754;0.000;0.000;2023-03-13T13:09:18;18.30;99.90
56869;DHT22;42754;0.000;0.000;2023-03-13T13:11:45;18.40;99.90
56869;DHT22;42754;0.000;0.000;2023-03-13T13:16:45;17.80;99.90
56869;DHT22;42754;0.000;0.000;2023-03-13T13:24:48;17.70;99.90
56869;DHT22;42754;0.000;0.000;2023-03-13T13:30:43;17.40;99.90
56869;DHT22;42754;0.000;0.000;2023-03-13T13:32:54;17.20;99.90
56869;DHT22;42754;0.000;0.000;2023-03-13T13:35:25;17.30;99.90
56869;DHT22;42754;0.000;0.000;2023-03-13T13:37:50;17.10;99.90
56869;DHT22;42754;0.000;0.000;2023-03-13T13:40:21;17.50;99.90
56869;DHT22;42754;0.000;0.000;2023-03-13T13:47:48;17.70;99.90
56869;DHT22;42754;0.000;0.000;2023-03-13T13:50:20;17.60;99.90
56869;DHT22;42754;0.000;0.000;2023-03-13T13:52:46;17.60;99.90
56869;DHT22;42754;0.000;0.000;2023-03-13T13:55:33;17.80;99.90
56869;DHT22;42754;0.000;0.000;2023-03-13T13:58:08;17.70;99.90
56869;DHT22;42754;0.000;0.000;2023-03-13T14:00:37;17.70;99.90
56869;DHT22;42754;0.000;0.000;2023-03-13T14:03:15;17.80;99.90
56869;DHT22;42754;0.000;0.000;2023-03-13T14:05:42;17.90;99.90
56869;DHT22;42754;0.000;0.000;2023-03-13T14:08:14;18.20;99.90
56869;DHT22;42754;0.000;0.000;2023-03-13T14:13:14;18.40;99.80
56869;DHT22;42754;0.000;0.000;2023-03-13T14:15:43;18.20;99.70
56869;DHT22;42754;0.000;0.000;2023-03-13T14:18:10;18.30;99.90
56869;DHT22;42754;0.000;0.000;2023-03-13T14:20:38;18.10;99.90
56869;DHT22;42754;0.000;0.000;2023-03-13T14:23:05;18.20;98.90
56869;DHT22;42754;0.000;0.000;2023-03-13T14:25:53;18.30;99.70
56869;DHT22;42754;0.000;0.000;2023-03-13T14:28:24;18.40;99.90
56869;DHT22;42754;0.000;0.000;2023-03-13T14:30:51;18.30;99.30
56869;DHT22;42754;0.000;0.000;2023-03-13T14:33:17;18.40;99.90
56869;DHT22;42754;0.000;0.000;2023-03-13T14:35:43;18.40;99.70
56869;DHT22;42754;0.000;0.000;2023-03-13T14:38:19;18.40;99.80
56869;DHT22;42754;0.000;0.000;2023-03-13T14:40:45;18.40;99.80
56869;DHT22;42754;0.000;0.000;2023-03-13T14:43:22;18.10;99.90
56869;DHT22;42754;0.000;0.000;2023-03-13T14:45:49;18.20;99.90
56869;DHT22;42754;0.000;0.000;2023-03-13T14:48:22;18.40;99.90
56869;DHT22;42754;0.000;0.000;2023-03-13T14:50:52;18.30;99.90
56869;DHT22;42754;0.000;0.000;2023-03-13T14:53:19;18.20;99.90
56869;DHT22;42754;0.000;0.000;2023-03-13T14:55:45;18.10;99.90
56869;DHT22;42754;0.000;0.000;2023-03-13T14:58:24;18.10;99.90
56869;DHT22;42754;0.000;0.000;2023-03-13T15:00:52;18.30;99.90
56869;DHT22;42754;0.000;0.000;2023-03-13T15:03:18;18.20;99.90
56869;DHT22;42754;0.000;0.000;2023-03-13T15:08:29;17.80;99.90
56869;DHT22;42754;0.000;0.000;2023-03-13T15:10:54;17.80;99.90
56869;DHT22;42754;0.000;0.000;2023-03-13T15:15:58;17.70;99.90
56869;DHT22;42754;0.000;0.000;2023-03-13T15:18:25;17.80;99.90
56869;DHT22;42754;0.000;0.000;2023-03-13T15:20:55;17.80;99.90
56869;DHT22;42754;0.000;0.000;2023-03-13T15:23:21;17.70;99.90
56869;DHT22;42754;0.000;0.000;2023-03-13T15:25:47;17.60;99.90
56869;DHT22;42754;0.000;0.000;2023-03-13T15:28:17;17.50;99.90
56869;DHT22;42754;0.000;0.000;2023-03-13T15:30:43;17.50;99.90
56869;DHT22;42754;0.000;0.000;2023-03-13T15:33:13;17.50;99.90
56869;DHT22;42754;0.000;0.000;2023-03-13T15:35:40;17.40;99.90
56869;DHT22;42754;0.000;0.000;2023-03-13T15:38:08;17.20;99.90
56869;DHT22;42754;0.000;0.000;2023-03-13T15:40:34;17.30;99.90
56869;DHT22;42754;0.000;0.000;2023-03-13T15:43:00;17.10;99.90
56869;DHT22;42754;0.000;0.000;2023-03-13T15:45:26;17.00;99.90
56869;DHT22;42754;0.000;0.000;2023-03-13T15:47:52;17.00;99.90
56869;DHT22;42754;0.000;0.000;2023-03-13T15:50:18;16.90;99.90
56869;DHT22;42754;0.000;0.000;2023-03-13T15:52:45;16.80;99.90
56869;DHT22;42754;0.000;0.000;2023-03-13T15:55:10;16.70;99.90
56869;DHT22;42754;0.000;0.000;2023-03-13T15:57:41;16.70;99.90
56869;DHT22;42754;0.000;0.000;2023-03-13T16:00:20;16.60;99.90
56869;DHT22;42754;0.000;0.000;2023-03-13T16:02:46;16.50;99.90
56869;DHT22;42754;0.000;0.000;2023-03-13T16:05:12;16.50;99.90
56869;DHT22;42754;0.000;0.000;2023-03-13T16:07:38;16.50;99.90
56869;DHT22;42754;0.000;0.000;2023-03-13T16:10:03;16.40;99.90
56869;DHT22;42754;0.000;0.000;2023-03-13T16:12:29;16.30;99.90
56869;DHT22;42754;0.000;0.000;2023-03-13T16:14:55;16.20;99.90
56869;DHT22;42754;0.000;0.000;2023-03-13T16:17:20;16.20;99.90
56869;DHT22;42754;0.000;0.000;2023-03-13T16:19:46;16.10;99.90
56869;DHT22;42754;0.000;0.000;2023-03-13T16:22:12;16.10;99.90
56869;DHT22;42754;0.000;0.000;2023-03-13T16:24:38;16.10;99.90
56869;DHT22;42754;0.000;0.000;2023-03-13T16:27:09;16.00;99.90
56869;DHT22;42754;0.000;0.000;2023-03-13T16:29:35;16.00;99.90
56869;DHT22;42754;0.000;0.000;2023-03-13T16:32:01;15.90;99.90
56869;DHT22;42754;0.000;0.000;2023-03-13T16:34:26;15.90;99.90
56869;DHT22;42754;0.000;0.000;2023-03-13T16:36:52;15.90;99.90
56869;DHT22;42754;0.000;0.000;2023-03-13T16:39:18;15.80;99.90
56869;DHT22;42754;0.000;0.000;2023-03-13T16:41:43;15.70;99.90
56869;DHT22;42754;0.000;0.000;2023-03-13T16:44:09;15.80;99.90
56869;DHT22;42754;0.000;0.000;2023-03-13T16:46:35;15.70;99.90
56869;DHT22;42754;0.000;0.000;2023-03-13T16:49:01;15.70;99.90
56869;DHT22;42754;0.000;0.000;2023-03-13T16:51:28;15.60;99.90
56869;DHT22;42754;0.000;0.000;2023-03-13T16:53:54;15.60;99.90
56869;DHT22;42754;0.000;0.000;2023-03-13T16:56:25;15.60;99.90
56869;DHT22;42754;0.000;0.000;2023-03-13T16:58:52;15.50;99.90
56869;DHT22;42754;0.000;0.000;2023-03-13T17:01:18;15.50;99.90
56869;DHT22;42754;0.000;0.000;2023-03-13T17:03:44;15.40;99.90
56869;DHT22;42754;0.000;0.000;2023-03-13T17:06:20;15.30;99.90
56869;DHT22;42754;0.000;0.000;2023-03-13T17:08:46;15.30;99.90
56869;DHT22;42754;0.000;0.000;2023-03-13T17:11:12;15.20;99.90
56869;DHT22;42754;0.000;0.000;2023-03-13T17:13:40;15.20;99.90
56869;DHT22;42754;0.000;0.000;2023-03-13T17:16:13;15.10;99.90
56869;DHT22;42754;0.000;0.000;2023-03-13T17:18:39;15.00;99.90